Bei Facebook empfehlenBei Twitter postenGoogle plusPinterest

Das Wetter im Erzgebirge am 02.04.2015

Wetter und Klima am 02.04.2015 Holzhau im Erzgebirge (630m ü.NN)
Letzte gemessene Temperatur und Uhrzeit der Messung23:45:00 Uhr-1.50 °C
Temperatur (Maximum / Höchstwert) und Uhrzeit der Messung15:00:00 Uhr1.10 °C
Temperatur (Minimum / Tiefstwert) und Uhrzeit der Messung21:00:00-1.80 °C
Errechneter Absolutwert der Temperaturschwankungen zwischen Tmin und Tmax des Tages2.90 K
Errechnete Tagesmitteltemperatur-0.41667 °C
Gesamt - Niederschlag des Tages (in flüssiger Form)0.52 Liter / m²
Luftdruck (Maximum / Höchstwert) und Zeitpunkt der Messung23:45:00 Uhr1012.20 hPa
Luftdruck (Minimum / Tiefstwert) und Zeitpunkt der Messung09:15:00 Uhr1001.00 hPa
Errechneter Absolutwert der Luftdruckschwankungen des Tages11.20 hPa
Höchste gemessene Windgeschwindigkeit und Uhrzeit der Messung23:45:00 Uhr0.00 km/h
Errechnete Windhäufigkeit in Relation zu den Messwerten des Tages0.00000 %
Niedrigste Windkühle (Windchill) und Zeitpunkt der Messung21:00:00 Uhr-1.80 °C
Taupunkt (Maximum / Höchstwert) und Uhrzeit der Messung09:15:00 Uhr-0.50 °C
Taupunkt (Minimum / Tiefstwert) und Uhrzeit der Messung21:00:00-3.20 °C
Anzahl der automatisch eingelesenen Messwerte 96

Detaillierte Wetter- und Klima- Messwerte für den 02.04.2015 in Holzhau im Erzgebirge (630m ü.NN)
ZeitTemperaturLuftdruckRel. LuftfeuchteWindWindrichtungWindchillTaupunktNiederschlag l/m²
23:45:00-1.50 °C1012.20 hPa92.00 %-2.80 °C0.52
23:30:00-1.60 °C1012.10 hPa91.00 %-3.00 °C0.52
23:15:00-1.60 °C1012.00 hPa91.00 %-3.00 °C0.52
23:00:00-1.60 °C1011.80 hPa91.00 %-3.00 °C0.52
22:45:00-1.50 °C1011.60 hPa91.00 %-2.90 °C0.52
22:30:00-1.50 °C1011.40 hPa92.00 %-2.80 °C0.52
22:15:00-1.50 °C1011.10 hPa92.00 %-2.80 °C0.52
22:00:00-1.50 °C1011.10 hPa91.00 %-2.90 °C0.52
21:45:00-1.50 °C1011.00 hPa91.00 %-2.90 °C0.52
21:30:00-1.60 °C1010.70 hPa91.00 %-3.00 °C0.52
21:15:00-1.70 °C1010.60 hPa91.00 %-3.10 °C0.52
21:00:00-1.80 °C1010.40 hPa91.00 %-3.20 °C0.52
20:45:00-1.80 °C1010.00 hPa91.00 %-3.20 °C0.52
20:30:00-1.50 °C1009.50 hPa91.00 %-2.90 °C0.52
20:15:00-1.30 °C1009.20 hPa91.00 %-2.70 °C0.52
20:00:00-1.30 °C1009.10 hPa91.00 %-2.70 °C0.52
19:45:00-1.30 °C1008.60 hPa90.00 %-2.90 °C0.52
19:30:00-1.20 °C1008.60 hPa90.00 %-2.80 °C0.52
19:15:00-1.00 °C1008.20 hPa90.00 %-2.60 °C0.52
19:00:00-0.70 °C1007.90 hPa90.00 %-2.30 °C0.52
18:45:00-0.60 °C1007.50 hPa90.00 %-2.20 °C0.52
18:30:00-0.60 °C1007.00 hPa89.00 %-2.40 °C0.52
18:15:00-0.40 °C1006.50 hPa89.00 %-2.20 °C0.52
18:00:00-0.40 °C1006.40 hPa88.00 %-2.30 °C0.52
17:45:00-0.20 °C1006.40 hPa88.00 %-2.10 °C0.52
17:30:00-0.10 °C1006.30 hPa88.00 %-2.00 °C0.52
17:15:000.10 °C1006.20 hPa87.00 %-1.80 °C0.52
17:00:000.20 °C1006.00 hPa87.00 %-1.70 °C0.52
16:45:000.70 °C1005.60 hPa87.00 %-1.20 °C0.52
16:30:000.60 °C1005.20 hPa87.00 %-1.30 °C0.52
16:15:000.50 °C1004.80 hPa87.00 %-1.40 °C0.52
16:00:000.40 °C1004.60 hPa87.00 %-1.50 °C0.52
15:45:000.80 °C1004.40 hPa87.00 %-1.10 °C 
15:30:000.70 °C1004.10 hPa87.00 %-1.20 °C 
15:15:000.90 °C1003.90 hPa87.00 %-1.00 °C 
15:00:001.10 °C1003.60 hPa87.00 %-0.80 °C 
14:45:000.50 °C1003.40 hPa87.00 %-1.40 °C 
14:30:000.90 °C1003.20 hPa88.00 %-0.90 °C 
14:15:000.50 °C1003.10 hPa88.00 %-1.30 °C 
14:00:000.30 °C1002.90 hPa88.00 %-1.40 °C 
13:45:000.40 °C1002.50 hPa89.00 %-1.20 °C 
13:30:000.10 °C1002.30 hPa89.00 %-1.50 °C 
13:15:000.20 °C1002.30 hPa88.00 %-1.50 °C 
13:00:000.50 °C1001.90 hPa89.00 %-1.10 °C 
12:45:000.20 °C1001.70 hPa89.00 %-1.40 °C 
12:30:00-0.20 °C1001.80 hPa89.00 %-2.00 °C 
12:15:00-0.20 °C1001.70 hPa89.00 %-2.00 °C 
12:00:00-0.10 °C1001.70 hPa89.00 %-1.90 °C 
11:45:00-0.10 °C1001.60 hPa89.00 %-1.90 °C 
11:30:000.10 °C1001.70 hPa89.00 %-1.50 °C 
11:15:000.10 °C1001.50 hPa89.00 %-1.50 °C 
11:00:000.20 °C1001.50 hPa90.00 %-1.20 °C 
10:45:000.40 °C1001.60 hPa90.00 %-1.00 °C 
10:30:000.40 °C1001.60 hPa91.00 %-0.90 °C 
10:15:000.30 °C1001.40 hPa91.00 %-1.00 °C 
10:00:000.20 °C1001.60 hPa91.00 %-1.10 °C 
09:45:000.20 °C1001.70 hPa92.00 %-0.90 °C 
09:30:000.40 °C1001.70 hPa92.00 %-0.70 °C 
09:15:000.60 °C1001.00 hPa92.00 %-0.50 °C 
09:00:000.60 °C1001.10 hPa92.00 %-0.50 °C 
08:45:000.60 °C1001.40 hPa92.00 %-0.50 °C 
08:30:000.50 °C1001.60 hPa92.00 %-0.60 °C 
08:15:000.40 °C1001.90 hPa92.00 %-0.70 °C 
08:00:000.40 °C1002.30 hPa92.00 %-0.70 °C 
07:45:000.30 °C1002.30 hPa92.00 %-0.80 °C 
07:30:000.30 °C1002.70 hPa92.00 %-0.80 °C 
07:15:000.20 °C1003.00 hPa92.00 %-0.90 °C 
07:00:000.20 °C1003.20 hPa92.00 %-0.90 °C 
06:45:000.20 °C1003.20 hPa92.00 %-0.90 °C 
06:30:000.20 °C1003.40 hPa92.00 %-0.90 °C 
06:15:000.10 °C1003.70 hPa91.00 %-1.20 °C 
06:00:000.20 °C1004.20 hPa91.00 %-1.10 °C 
05:45:000.20 °C1004.40 hPa91.00 %-1.10 °C 
05:30:000.00 °C1004.70 hPa92.00 %-1.30 °C 
05:15:00-0.10 °C1004.90 hPa92.00 %-1.40 °C 
05:00:00-0.50 °C1005.30 hPa92.00 %-1.80 °C 
04:45:00-0.90 °C1005.50 hPa92.00 %-2.20 °C 
04:30:00-1.00 °C1006.00 hPa91.00 %-2.40 °C 
04:15:00-1.00 °C1006.40 hPa91.00 %-2.40 °C 
04:00:00-1.10 °C1006.60 hPa91.00 %-2.50 °C 
03:45:00-1.10 °C1007.20 hPa91.00 %-2.50 °C 
03:30:00-1.10 °C1007.40 hPa90.00 %-2.70 °C 
03:15:00-1.10 °C1007.80 hPa91.00 %-2.50 °C 
03:00:00-1.10 °C1008.30 hPa91.00 %-2.50 °C 
02:45:00-1.20 °C1008.40 hPa91.00 %-2.60 °C 
02:30:00-1.40 °C1008.90 hPa91.00 %-2.80 °C 
02:15:00-1.50 °C1009.10 hPa91.00 %-2.90 °C 
02:00:00-1.50 °C1009.40 hPa91.00 %-2.90 °C 
01:45:00-1.40 °C1009.70 hPa91.00 %-2.80 °C 
01:30:00-1.40 °C1009.80 hPa91.00 %-2.80 °C 
01:15:00-1.40 °C1009.90 hPa91.00 %-2.80 °C 
01:00:00-1.30 °C1010.00 hPa91.00 %-2.70 °C 
00:45:00-1.30 °C1009.90 hPa91.00 %-2.70 °C 
00:30:00-1.20 °C1010.00 hPa91.00 %-2.60 °C 
00:15:00-1.20 °C1009.90 hPa92.00 %-2.50 °C 
00:00:00-1.20 °C1009.30 hPa91.00 %-2.60 °C 

Permanenter Link zu dieser Seite: Wetter im Erzgebirge am 02.04.2015
Performance-Info: Die Erstellung der Seite / Statistik(en) / Tabelle(n) erforderte 5 Datenbankserver-Abfrage(n) und dauerte 99 Millisekunden. (Dieser Messwert ist von der Gesamt-Auslastung des Servers abhängig.)
Erzgebirge - Wetter | Erzgebirge - Wetter (Mobilgeräte) | Komplette Klimadatenbank